createdAt,value
2022-08-22T00:01:34.057Z,6.88
2022-08-22T00:02:45.054Z,5.78
2022-08-22T00:02:46.055Z,6.65
2022-08-22T00:02:54.938Z,6.60
2022-08-22T00:02:56.261Z,6.50
2022-08-22T00:02:57.281Z,11.30
2022-08-22T00:02:58.481Z,5.93
2022-08-22T00:03:15.317Z,8.57
2022-08-22T00:04:18.133Z,6.18
2022-08-22T00:06:59.874Z,7.35
2022-08-22T00:09:39.172Z,7.60
2022-08-22T00:12:22.625Z,5.65
2022-08-22T00:15:02.931Z,7.50
2022-08-22T00:17:48.751Z,6.28
2022-08-22T00:20:28.161Z,7.55
2022-08-22T00:23:17.476Z,8.25
2022-08-22T00:26:01.443Z,7.07
2022-08-22T00:28:39.119Z,7.18
2022-08-22T00:31:23.785Z,7.15
2022-08-22T00:34:01.349Z,7.38
2022-08-22T00:36:40.514Z,8.52
2022-08-22T00:39:18.568Z,10.68
2022-08-22T00:42:36.619Z,8.88
2022-08-22T00:45:45.831Z,9.68
2022-08-22T00:48:41.667Z,8.68
2022-08-22T00:52:14.379Z,9.73
2022-08-22T00:55:07.982Z,6.85
2022-08-22T00:58:02.966Z,7.63
2022-08-22T01:00:39.931Z,6.65
2022-08-22T01:03:46.749Z,9.85
2022-08-22T01:06:29.348Z,7.07
2022-08-22T01:09:15.380Z,8.30
2022-08-22T01:12:34.162Z,7.20
2022-08-22T01:15:09.775Z,8.05
2022-08-22T01:18:04.280Z,7.55
2022-08-22T01:21:37.882Z,7.68
2022-08-22T01:27:57.638Z,7.18
2022-08-22T01:31:20.756Z,12.15
2022-08-22T01:34:45.566Z,7.80
2022-08-22T01:38:01.969Z,9.65
2022-08-22T01:41:20.463Z,8.98
2022-08-22T01:44:25.787Z,8.35
2022-08-22T01:47:05.047Z,8.32
2022-08-22T01:49:47.984Z,9.18
2022-08-22T01:52:30.144Z,10.52
2022-08-22T01:55:08.000Z,7.97
2022-08-22T01:57:53.227Z,9.05
2022-08-22T02:00:35.207Z,9.07
2022-08-22T02:03:24.227Z,11.13
2022-08-22T02:06:03.961Z,8.85
2022-08-22T02:08:45.736Z,9.20
2022-08-22T02:11:39.563Z,8.18
2022-08-22T02:14:27.331Z,11.75
2022-08-22T02:17:10.403Z,11.18
2022-08-22T02:19:51.180Z,9.68
2022-08-22T02:22:33.985Z,8.15
2022-08-22T02:25:13.389Z,9.05
2022-08-22T02:27:56.681Z,8.65
2022-08-22T02:30:43.144Z,10.25
2022-08-22T02:33:27.605Z,10.07
2022-08-22T02:36:03.528Z,8.82
2022-08-22T02:38:39.835Z,10.30
2022-08-22T02:41:22.838Z,7.43
2022-08-22T02:43:58.141Z,12.05
2022-08-22T02:46:43.113Z,9.98
2022-08-22T02:49:23.537Z,11.70
2022-08-22T02:52:08.197Z,9.60
2022-08-22T02:54:48.458Z,11.73
2022-08-22T02:57:31.456Z,9.95
2022-08-22T03:00:31.313Z,8.23
2022-08-22T03:03:16.977Z,7.53
2022-08-22T03:06:01.403Z,9.93
2022-08-22T03:08:36.260Z,7.97
2022-08-22T03:11:26.952Z,10.27
2022-08-22T03:14:15.107Z,8.73
2022-08-22T03:16:53.711Z,10.30
2022-08-22T03:19:32.833Z,9.63
2022-08-22T03:22:08.386Z,10.38
2022-08-22T03:24:51.515Z,11.52
2022-08-22T03:27:33.152Z,10.27
2022-08-22T03:30:11.189Z,10.98
2022-08-22T03:32:54.575Z,10.75
2022-08-22T03:35:38.490Z,9.00
2022-08-22T03:38:21.834Z,11.98
2022-08-22T03:41:16.459Z,9.85
2022-08-22T03:44:11.696Z,8.35
2022-08-22T03:47:28.304Z,11.38
2022-08-22T03:50:44.853Z,9.90
2022-08-22T03:53:54.569Z,9.93
2022-08-22T03:57:01.027Z,9.38
2022-08-22T04:00:10.663Z,9.82
2022-08-22T04:03:13.095Z,8.35
2022-08-22T04:06:27.309Z,8.52
2022-08-22T04:10:15.894Z,7.90
2022-08-22T04:13:01.376Z,9.30
2022-08-22T04:16:07.996Z,8.68
2022-08-22T04:19:13.621Z,8.88
2022-08-22T04:22:08.489Z,8.15
2022-08-22T04:24:57.270Z,7.82
2022-08-22T04:27:33.975Z,9.75
2022-08-22T04:30:20.836Z,11.40
2022-08-22T04:32:59.713Z,8.75
2022-08-22T04:35:35.327Z,6.53
2022-08-22T04:38:13.393Z,9.02
2022-08-22T04:40:50.212Z,7.60
2022-08-22T04:43:26.981Z,10.98
2022-08-22T04:46:03.434Z,9.35
2022-08-22T04:48:41.325Z,8.60
2022-08-22T04:51:22.022Z,7.28
2022-08-22T04:54:25.226Z,6.40
2022-08-22T04:57:15.290Z,7.88
2022-08-22T04:59:44.970Z,7.43
2022-08-22T05:02:24.468Z,7.95
2022-08-22T05:05:04.900Z,9.27
2022-08-22T05:07:47.603Z,7.78
2022-08-22T05:10:33.523Z,7.07
2022-08-22T05:13:11.175Z,6.60
2022-08-22T05:15:45.845Z,7.55
2022-08-22T05:18:23.536Z,7.57
2022-08-22T05:20:59.814Z,8.70
2022-08-22T05:23:32.284Z,7.90
2022-08-22T05:26:06.179Z,7.78
2022-08-22T05:28:38.343Z,8.68
2022-08-22T05:31:13.259Z,6.38
2022-08-22T05:33:48.252Z,7.90
2022-08-22T05:36:27.014Z,5.97
2022-08-22T05:39:03.527Z,6.28
2022-08-22T05:41:39.929Z,7.15
2022-08-22T05:44:19.884Z,5.35
2022-08-22T05:46:57.361Z,6.85
2022-08-22T05:49:37.398Z,7.82
2022-08-22T05:52:17.890Z,5.50
2022-08-22T05:54:57.591Z,6.47
2022-08-22T05:57:34.754Z,5.25
2022-08-22T06:00:10.850Z,7.75
2022-08-22T06:02:59.045Z,6.78
2022-08-22T06:05:31.923Z,5.72
2022-08-22T06:08:09.153Z,10.10
2022-08-22T06:10:44.111Z,5.95
2022-08-22T06:13:25.487Z,6.05
2022-08-22T06:16:06.748Z,8.38
2022-08-22T06:18:41.052Z,7.95
2022-08-22T06:21:18.845Z,7.07
2022-08-22T06:23:57.561Z,5.20
2022-08-22T06:26:31.111Z,7.50
2022-08-22T06:29:03.718Z,9.50
2022-08-22T06:31:37.927Z,4.95
2022-08-22T06:34:12.548Z,4.78
2022-08-22T06:36:46.060Z,3.90
2022-08-22T06:39:23.591Z,9.20
2022-08-22T06:42:01.116Z,4.40
2022-08-22T06:44:35.442Z,6.55
2022-08-22T06:47:11.914Z,5.53
2022-08-22T06:49:43.853Z,3.60
2022-08-22T06:52:20.220Z,4.85
2022-08-22T06:54:59.202Z,4.57
2022-08-22T06:57:34.239Z,6.70
2022-08-22T07:00:09.794Z,5.50
2022-08-22T07:02:44.186Z,6.00
2022-08-22T07:05:20.119Z,6.85
2022-08-22T07:07:50.342Z,7.95
2022-08-22T07:10:24.739Z,3.65
2022-08-22T07:12:57.762Z,6.63
2022-08-22T07:15:36.630Z,5.72
2022-08-22T07:18:09.084Z,4.68
2022-08-22T07:20:45.273Z,3.58
2022-08-22T07:23:32.616Z,4.30
2022-08-22T07:26:22.977Z,4.43
2022-08-22T07:28:58.055Z,4.68
2022-08-22T07:31:38.238Z,4.32
2022-08-22T07:34:29.348Z,5.70
2022-08-22T07:37:04.175Z,7.22
2022-08-22T07:39:39.521Z,4.78
2022-08-22T07:42:17.256Z,5.78
2022-08-22T07:45:06.944Z,5.63
2022-08-22T07:48:00.588Z,3.72
2022-08-22T07:50:33.665Z,5.65
2022-08-22T07:53:13.641Z,3.85
2022-08-22T07:55:49.427Z,3.70
2022-08-22T07:58:23.061Z,3.85
2022-08-22T08:00:54.077Z,3.40
2022-08-22T08:03:26.835Z,9.10
2022-08-22T08:05:56.469Z,3.97
2022-08-22T08:08:34.521Z,6.43
2022-08-22T08:11:07.150Z,3.80
2022-08-22T08:13:42.856Z,5.80
2022-08-22T08:16:19.334Z,6.50
2022-08-22T08:18:52.112Z,4.20
2022-08-22T08:21:31.084Z,6.85
2022-08-22T08:24:02.205Z,4.00
2022-08-22T08:26:36.652Z,2.78
2022-08-22T08:29:08.217Z,5.07
2022-08-22T08:31:43.380Z,4.90
2022-08-22T08:34:24.967Z,5.55
2022-08-22T08:36:59.384Z,7.03
2022-08-22T08:39:36.452Z,4.72
2022-08-22T08:42:55.182Z,4.75
2022-08-22T08:45:51.732Z,3.15
2022-08-22T08:48:53.737Z,5.97
2022-08-22T08:51:53.674Z,2.90
2022-08-22T08:54:56.010Z,5.15
2022-08-22T08:57:48.135Z,4.50
2022-08-22T09:00:29.080Z,5.40
2022-08-22T09:06:30.644Z,5.60
2022-08-22T09:09:17.222Z,3.53
2022-08-22T09:12:18.419Z,5.32
2022-08-22T09:15:26.040Z,7.05
2022-08-22T09:18:33.281Z,7.00
2022-08-22T09:21:30.765Z,4.40
2022-08-22T09:24:49.099Z,3.42
2022-08-22T09:27:31.771Z,3.00
2022-08-22T09:30:11.549Z,6.32
2022-08-22T09:32:55.751Z,7.63
2022-08-22T09:35:42.472Z,6.07
2022-08-22T09:38:29.028Z,4.03
2022-08-22T09:41:14.547Z,6.95
2022-08-22T09:43:50.304Z,3.47
2022-08-22T09:46:31.510Z,6.10
2022-08-22T09:49:14.108Z,2.63
2022-08-22T09:52:05.287Z,4.13
2022-08-22T09:54:51.924Z,2.55
2022-08-22T09:57:35.622Z,4.57
2022-08-22T10:00:26.670Z,5.30
2022-08-22T10:03:17.095Z,3.80
2022-08-22T10:05:54.908Z,3.33
2022-08-22T10:08:45.914Z,5.43
2022-08-22T10:11:28.712Z,2.85
2022-08-22T10:14:06.011Z,2.67
2022-08-22T10:17:01.692Z,3.88
2022-08-22T10:19:40.135Z,3.78
2022-08-22T10:22:30.356Z,2.97
2022-08-22T10:25:33.173Z,4.05
2022-08-22T10:28:21.212Z,4.03
2022-08-22T10:31:09.457Z,2.83
2022-08-22T10:33:48.883Z,4.70
2022-08-22T10:36:32.374Z,5.43
2022-08-22T10:39:05.526Z,4.22
2022-08-22T10:42:00.223Z,4.20
2022-08-22T10:44:43.100Z,4.95
2022-08-22T10:47:22.008Z,3.50
2022-08-22T10:49:56.601Z,4.65
2022-08-22T10:52:33.123Z,3.33
2022-08-22T10:55:13.326Z,2.55
2022-08-22T10:58:06.791Z,3.47
2022-08-22T11:00:50.444Z,2.55
2022-08-22T11:03:32.867Z,3.08
2022-08-22T11:06:07.700Z,3.13
2022-08-22T11:09:16.173Z,3.13
2022-08-22T11:11:50.242Z,3.25
2022-08-22T11:15:12.421Z,3.97
2022-08-22T11:18:20.962Z,3.65
2022-08-22T11:21:01.740Z,10.48
2022-08-22T11:23:46.155Z,3.75
2022-08-22T11:26:41.682Z,3.58
2022-08-22T11:29:43.472Z,3.13
2022-08-22T11:32:25.725Z,3.75
2022-08-22T11:35:04.388Z,4.35
2022-08-22T11:37:54.949Z,3.78
2022-08-22T11:40:43.639Z,6.60
2022-08-22T11:43:37.243Z,2.10
2022-08-22T11:46:20.922Z,2.40
2022-08-22T11:49:25.611Z,4.97
2022-08-22T11:52:19.970Z,1.98
2022-08-22T11:55:12.463Z,2.45
2022-08-22T11:57:46.018Z,2.90
2022-08-22T12:00:34.932Z,3.25
2022-08-22T12:03:44.945Z,2.25
2022-08-22T12:06:41.766Z,3.78
2022-08-22T12:09:20.380Z,3.95
2022-08-22T12:12:17.116Z,3.08
2022-08-22T12:14:56.269Z,2.75
2022-08-22T12:18:02.328Z,3.28
2022-08-22T12:21:09.191Z,2.60
2022-08-22T12:24:19.125Z,4.68
2022-08-22T12:27:14.799Z,3.60
2022-08-22T12:30:20.772Z,4.18
2022-08-22T12:33:28.993Z,4.43
2022-08-22T12:36:17.740Z,4.22
2022-08-22T12:39:17.465Z,1.98
2022-08-22T12:42:29.814Z,1.63
2022-08-22T12:45:29.048Z,1.40
2022-08-22T12:48:17.882Z,1.65
2022-08-22T12:50:56.020Z,2.35
2022-08-22T12:53:59.573Z,2.72
2022-08-22T12:56:52.139Z,4.15
2022-08-22T12:59:31.238Z,3.55
2022-08-22T13:02:04.899Z,5.00
2022-08-22T13:04:35.725Z,1.45
2022-08-22T13:07:23.738Z,3.22
2022-08-22T13:09:57.773Z,3.05
2022-08-22T13:12:35.166Z,2.33
2022-08-22T13:15:25.459Z,4.03
2022-08-22T13:18:08.736Z,2.55
2022-08-22T13:20:51.077Z,4.15
2022-08-22T13:23:26.013Z,2.88
2022-08-22T13:26:07.451Z,3.38
2022-08-22T13:28:45.949Z,3.10
2022-08-22T13:31:26.753Z,2.80
2022-08-22T13:34:02.153Z,3.13
2022-08-22T13:36:41.045Z,2.35
2022-08-22T13:39:29.655Z,3.20
2022-08-22T13:42:14.228Z,1.88
2022-08-22T13:44:50.969Z,3.83
2022-08-22T13:47:22.439Z,3.28
2022-08-22T13:49:55.489Z,2.63
2022-08-22T13:52:32.295Z,3.58
2022-08-22T13:55:12.157Z,1.70
2022-08-22T13:58:03.053Z,2.67
2022-08-22T14:01:28.599Z,2.33
2022-08-22T14:04:05.592Z,1.90
2022-08-22T14:06:55.597Z,3.72
2022-08-22T14:09:43.126Z,2.75
2022-08-22T14:12:19.072Z,3.10
2022-08-22T14:14:55.895Z,2.55
2022-08-22T14:17:38.445Z,2.67
2022-08-22T14:20:32.680Z,4.63
2022-08-22T14:23:08.811Z,1.73
2022-08-22T14:25:40.487Z,3.22
2022-08-22T14:28:21.657Z,3.55
2022-08-22T14:31:03.539Z,5.38
2022-08-22T14:33:40.868Z,3.30
2022-08-22T14:36:19.237Z,3.55
2022-08-22T14:38:56.164Z,4.13
2022-08-22T14:41:55.420Z,2.63
2022-08-22T14:44:30.456Z,4.07
2022-08-22T14:47:32.204Z,2.63
2022-08-22T14:49:59.428Z,2.50
2022-08-22T14:52:40.566Z,2.95
2022-08-22T14:55:17.143Z,2.53
2022-08-22T14:57:53.872Z,3.47
2022-08-22T15:00:34.941Z,3.38
2022-08-22T15:03:15.301Z,2.08
2022-08-22T15:05:51.031Z,5.38
2022-08-22T15:08:33.453Z,3.90
2022-08-22T15:11:22.116Z,7.03
2022-08-22T15:14:05.611Z,4.38
2022-08-22T15:16:38.132Z,4.45
2022-08-22T15:19:25.447Z,6.78
2022-08-22T15:22:20.044Z,2.95
2022-08-22T15:25:02.126Z,3.08
2022-08-22T15:27:35.733Z,2.60
2022-08-22T15:30:20.617Z,5.15
2022-08-22T15:32:50.167Z,3.35
2022-08-22T15:35:31.492Z,3.65
2022-08-22T15:38:06.627Z,3.20
2022-08-22T15:40:42.279Z,6.18
2022-08-22T15:43:23.038Z,4.80
2022-08-22T15:46:09.895Z,3.35
2022-08-22T15:48:56.759Z,3.58
2022-08-22T15:51:40.849Z,4.57
2022-08-22T15:54:24.665Z,4.03
2022-08-22T15:57:19.375Z,5.55
2022-08-22T15:59:58.888Z,5.18
2022-08-22T16:02:37.470Z,3.50
2022-08-22T16:05:23.904Z,5.30
2022-08-22T16:08:05.791Z,5.85
2022-08-22T16:10:42.446Z,3.65
2022-08-22T16:13:40.014Z,3.35
2022-08-22T16:16:34.602Z,3.42
2022-08-22T16:19:28.496Z,3.03
2022-08-22T16:22:15.529Z,4.45
2022-08-22T16:25:10.282Z,3.03
2022-08-22T16:27:55.175Z,3.80
2022-08-22T16:30:37.417Z,2.85
2022-08-22T16:33:08.809Z,3.00
2022-08-22T16:36:41.779Z,4.03
2022-08-22T16:39:29.670Z,2.35
2022-08-22T16:42:28.376Z,2.58
2022-08-22T16:45:13.684Z,6.03
2022-08-22T16:47:56.632Z,3.28
2022-08-22T16:50:36.453Z,3.95
2022-08-22T16:53:11.180Z,3.80
2022-08-22T16:56:13.660Z,2.58
2022-08-22T16:59:24.481Z,4.72
2022-08-22T17:02:26.089Z,3.65
2022-08-22T17:05:19.661Z,3.78
2022-08-22T17:08:12.182Z,4.20
2022-08-22T17:10:51.986Z,2.42
2022-08-22T17:13:49.942Z,4.57
2022-08-22T17:16:49.763Z,2.58
2022-08-22T17:19:39.312Z,3.60
2022-08-22T17:22:28.463Z,3.20
2022-08-22T17:25:21.767Z,4.03
2022-08-22T17:27:56.040Z,4.43
2022-08-22T17:30:37.009Z,5.78
2022-08-22T17:33:18.403Z,2.88
2022-08-22T17:36:07.155Z,3.08
2022-08-22T17:39:26.352Z,5.30
2022-08-22T17:42:16.543Z,4.25
2022-08-22T17:45:04.483Z,2.63
2022-08-22T17:47:45.804Z,4.68
2022-08-22T17:50:26.675Z,4.03
2022-08-22T17:53:04.476Z,3.03
2022-08-22T17:55:59.909Z,3.13
2022-08-22T17:58:43.695Z,4.22
2022-08-22T18:01:38.433Z,4.47
2022-08-22T18:04:16.646Z,5.88
2022-08-22T18:06:57.078Z,3.88
2022-08-22T18:09:39.920Z,6.88
2022-08-22T18:12:22.526Z,4.82
2022-08-22T18:14:59.285Z,4.50
2022-08-22T18:17:38.109Z,4.15
2022-08-22T18:20:17.038Z,4.45
2022-08-22T18:22:54.897Z,4.15
2022-08-22T18:25:44.612Z,3.35
2022-08-22T18:28:29.234Z,3.65
2022-08-22T18:31:02.073Z,5.68
2022-08-22T18:33:38.530Z,3.60
2022-08-22T18:36:16.001Z,5.50
2022-08-22T18:38:56.573Z,3.22
2022-08-22T18:41:36.877Z,4.00
2022-08-22T18:44:11.952Z,3.92
2022-08-22T18:46:47.181Z,4.97
2022-08-22T18:49:41.878Z,4.30
2022-08-22T18:52:38.362Z,5.03
2022-08-22T18:55:45.377Z,3.53
2022-08-22T18:58:49.433Z,3.58
2022-08-22T19:01:51.972Z,3.28
2022-08-22T19:04:54.504Z,3.15
2022-08-22T19:08:02.341Z,3.20
2022-08-22T19:10:55.481Z,5.18
2022-08-22T19:13:48.404Z,2.95
2022-08-22T19:17:16.294Z,4.75
2022-08-22T19:20:19.093Z,4.30
2022-08-22T19:22:51.069Z,3.65
2022-08-22T19:25:28.375Z,3.65
2022-08-22T19:28:26.658Z,4.85
2022-08-22T19:31:23.526Z,8.95
2022-08-22T19:34:15.848Z,4.93
2022-08-22T19:37:06.337Z,3.50
2022-08-22T19:39:55.501Z,4.30
2022-08-22T19:42:41.653Z,3.55
2022-08-22T19:45:26.564Z,5.18
2022-08-22T19:47:59.419Z,4.13
2022-08-22T19:50:34.539Z,3.72
2022-08-22T19:53:35.713Z,4.43
2022-08-22T19:56:23.943Z,5.70
2022-08-22T19:59:07.366Z,7.40
2022-08-22T20:01:56.047Z,3.90
2022-08-22T20:04:47.364Z,3.97
2022-08-22T20:07:27.702Z,4.85
2022-08-22T20:10:15.851Z,5.40
2022-08-22T20:13:19.103Z,7.13
2022-08-22T20:16:19.795Z,5.00
2022-08-22T20:19:20.165Z,5.38
2022-08-22T20:21:59.186Z,7.25
2022-08-22T20:24:40.006Z,6.25
2022-08-22T20:27:15.474Z,6.60
2022-08-22T20:30:03.267Z,6.50
2022-08-22T20:32:38.705Z,7.85
2022-08-22T20:35:08.790Z,6.53
2022-08-22T20:38:05.949Z,7.70
2022-08-22T20:40:55.377Z,7.60
2022-08-22T20:43:34.409Z,5.60
2022-08-22T20:46:23.983Z,7.15
2022-08-22T20:48:57.046Z,5.55
2022-08-22T20:51:29.232Z,5.65
2022-08-22T20:54:01.499Z,6.55
2022-08-22T20:56:48.721Z,5.20
2022-08-22T20:59:31.933Z,5.40
2022-08-22T21:02:13.925Z,8.55
2022-08-22T21:04:52.711Z,4.88
2022-08-22T21:07:29.625Z,7.07
2022-08-22T21:10:23.162Z,6.18
2022-08-22T21:13:10.973Z,8.32
2022-08-22T21:15:42.923Z,6.72
2022-08-22T21:18:14.842Z,9.07
2022-08-22T21:20:43.235Z,7.55
2022-08-22T21:23:16.846Z,5.95
2022-08-22T21:25:56.691Z,7.10
2022-08-22T21:28:35.941Z,8.48
2022-08-22T21:31:14.377Z,6.35
2022-08-22T21:33:48.305Z,5.85
2022-08-22T21:36:24.386Z,7.25
2022-08-22T21:38:56.037Z,11.52
2022-08-22T21:41:31.504Z,7.53
2022-08-22T21:44:28.878Z,7.03
2022-08-22T21:46:59.050Z,10.57
2022-08-22T21:49:31.083Z,12.93
2022-08-22T21:51:59.338Z,6.50
2022-08-22T21:54:40.843Z,8.80
2022-08-22T21:57:33.524Z,7.20
2022-08-22T22:00:02.200Z,7.20
2022-08-22T22:02:43.696Z,9.02
2022-08-22T22:05:17.151Z,7.25
2022-08-22T22:07:48.146Z,7.45
2022-08-22T22:10:20.192Z,9.30
2022-08-22T22:12:52.338Z,6.50
2022-08-22T22:15:23.240Z,10.75
2022-08-22T22:17:51.833Z,5.88
2022-08-22T22:20:23.974Z,6.10
2022-08-22T22:22:52.503Z,8.10
2022-08-22T22:25:40.704Z,6.45
2022-08-22T22:28:17.426Z,7.05
2022-08-22T22:30:50.464Z,8.13
2022-08-22T22:33:19.076Z,6.40
2022-08-22T22:35:50.516Z,7.20
2022-08-22T22:38:23.382Z,9.38
2022-08-22T22:40:52.897Z,8.23
2022-08-22T22:43:21.241Z,8.82
2022-08-22T22:45:49.958Z,8.20
2022-08-22T22:48:24.271Z,7.65
2022-08-22T22:50:55.830Z,7.93
2022-08-22T22:53:28.604Z,5.78
2022-08-22T22:56:10.070Z,7.75
2022-08-22T22:58:40.489Z,9.73
2022-08-22T23:01:11.164Z,8.93
2022-08-22T23:03:39.857Z,6.40
2022-08-22T23:06:14.906Z,6.45
2022-08-22T23:08:43.623Z,7.68
2022-08-22T23:11:15.325Z,5.60
2022-08-22T23:13:43.892Z,6.65
2022-08-22T23:16:16.950Z,6.78
2022-08-22T23:18:46.793Z,8.63
2022-08-22T23:21:21.052Z,6.80
2022-08-22T23:23:50.675Z,6.40
2022-08-22T23:26:19.330Z,8.48
2022-08-22T23:28:47.779Z,7.00
2022-08-22T23:31:19.689Z,6.80
2022-08-22T23:33:48.392Z,7.82
2022-08-22T23:36:21.553Z,9.27
2022-08-22T23:38:52.231Z,6.15
2022-08-22T23:41:21.902Z,8.98
2022-08-22T23:43:55.051Z,7.80
2022-08-22T23:46:26.567Z,7.72
2022-08-22T23:48:55.965Z,7.60
2022-08-22T23:51:26.859Z,8.13
2022-08-22T23:53:57.882Z,8.07
2022-08-22T23:56:30.545Z,6.60
2022-08-22T23:59:00.690Z,10.60
